createdAt,value
2018-04-02T00:01:26.362Z,9.13
2018-04-02T00:03:53.098Z,8.03
2018-04-02T00:06:19.839Z,7.90
2018-04-02T00:08:46.656Z,6.83
2018-04-02T00:11:13.384Z,6.70
2018-04-02T00:13:40.129Z,8.17
2018-04-02T00:16:06.834Z,8.80
2018-04-02T00:18:33.526Z,8.63
2018-04-02T00:21:00.246Z,8.03
2018-04-02T00:23:26.947Z,6.63
2018-04-02T00:25:53.646Z,7.63
2018-04-02T00:28:20.444Z,5.97
2018-04-02T00:30:47.145Z,4.70
2018-04-02T00:33:13.864Z,4.70
2018-04-02T00:35:40.589Z,4.40
2018-04-02T00:38:07.277Z,4.60
2018-04-02T00:40:33.989Z,4.23
2018-04-02T00:43:00.691Z,3.60
2018-04-02T00:45:27.413Z,3.63
2018-04-02T00:47:54.120Z,3.70
2018-04-02T00:50:20.803Z,3.30
2018-04-02T00:52:47.533Z,3.30
2018-04-02T00:55:14.225Z,4.17
2018-04-02T00:57:40.956Z,4.53
2018-04-02T01:00:07.698Z,4.33
2018-04-02T01:02:34.416Z,3.97
2018-04-02T01:05:01.150Z,3.90
2018-04-02T01:07:27.858Z,3.20
2018-04-02T01:09:54.636Z,3.20
2018-04-02T01:12:21.355Z,3.43
2018-04-02T01:14:48.080Z,2.80
2018-04-02T01:17:14.819Z,1.70
2018-04-02T01:19:41.522Z,2.13
2018-04-02T01:22:08.257Z,1.97
2018-04-02T01:24:34.977Z,1.30
2018-04-02T01:27:01.695Z,1.40
2018-04-02T01:29:28.487Z,1.63
2018-04-02T01:31:55.204Z,1.37
2018-04-02T01:34:21.946Z,1.70
2018-04-02T01:36:48.648Z,1.30
2018-04-02T01:39:15.344Z,1.40
2018-04-02T01:41:42.080Z,1.73
2018-04-02T01:44:08.787Z,1.20
2018-04-02T01:46:35.606Z,1.67
2018-04-02T01:49:02.335Z,1.40
2018-04-02T01:51:29.049Z,1.70
2018-04-02T01:53:55.766Z,1.03
2018-04-02T01:56:22.535Z,1.37
2018-04-02T01:58:49.256Z,1.27
2018-04-02T02:01:15.967Z,1.20
2018-04-02T02:03:42.732Z,1.40
2018-04-02T02:06:09.480Z,1.20
2018-04-02T02:08:36.181Z,1.60
2018-04-02T02:11:02.918Z,1.70
2018-04-02T02:13:29.694Z,1.70
2018-04-02T02:15:56.418Z,1.50
2018-04-02T02:18:23.140Z,1.80
2018-04-02T02:20:49.850Z,1.83
2018-04-02T02:23:16.587Z,1.40
2018-04-02T02:25:43.293Z,1.57
2018-04-02T02:28:10.029Z,1.47
2018-04-02T02:30:36.730Z,1.20
2018-04-02T02:33:03.446Z,1.43
2018-04-02T02:35:30.204Z,1.67
2018-04-02T02:37:56.918Z,1.37
2018-04-02T02:40:23.664Z,1.47
2018-04-02T02:42:50.380Z,1.90
2018-04-02T02:45:17.130Z,1.10
2018-04-02T02:47:43.854Z,1.10
2018-04-02T02:50:10.547Z,1.13
2018-04-02T02:52:37.276Z,1.40
2018-04-02T02:55:03.975Z,1.43
2018-04-02T02:57:30.699Z,1.63
2018-04-02T02:59:57.426Z,1.10
2018-04-02T03:02:24.124Z,1.07
2018-04-02T03:04:50.852Z,1.27
2018-04-02T03:07:17.567Z,1.43
2018-04-02T03:09:44.290Z,1.07
2018-04-02T03:12:10.987Z,1.07
2018-04-02T03:14:37.689Z,1.07
2018-04-02T03:17:04.414Z,1.10
2018-04-02T03:19:31.115Z,1.30
2018-04-02T03:21:57.844Z,1.07
2018-04-02T03:24:24.560Z,1.30
2018-04-02T03:26:51.257Z,1.10
2018-04-02T03:29:17.970Z,1.53
2018-04-02T03:31:44.674Z,1.40
2018-04-02T03:34:11.388Z,1.40
2018-04-02T03:36:38.180Z,1.50
2018-04-02T03:39:04.909Z,1.20
2018-04-02T03:41:31.631Z,1.50
2018-04-02T03:43:58.312Z,1.17
2018-04-02T03:46:25.195Z,2.00
2018-04-02T03:48:51.880Z,1.80
2018-04-02T03:51:18.568Z,3.10
2018-04-02T03:53:45.330Z,2.90
2018-04-02T03:56:12.054Z,3.07
2018-04-02T03:58:38.777Z,2.50
2018-04-02T04:01:05.497Z,2.13
2018-04-02T04:03:32.192Z,2.47
2018-04-02T04:05:58.915Z,1.60
2018-04-02T04:08:25.598Z,1.20
2018-04-02T04:10:52.324Z,1.60
2018-04-02T04:13:19.021Z,1.50
2018-04-02T04:15:45.722Z,1.60
2018-04-02T04:18:12.446Z,1.83
2018-04-02T04:20:39.137Z,1.70
2018-04-02T04:23:05.849Z,1.60
2018-04-02T04:25:32.563Z,2.17
2018-04-02T04:27:59.273Z,1.90
2018-04-02T04:30:25.971Z,2.00
2018-04-02T04:32:52.662Z,2.10
2018-04-02T04:35:19.377Z,1.40
2018-04-02T04:37:46.080Z,2.40
2018-04-02T04:40:12.807Z,1.97
2018-04-02T04:42:39.553Z,2.03
2018-04-02T04:45:06.270Z,2.07
2018-04-02T04:47:32.984Z,2.43
2018-04-02T04:49:59.682Z,1.87
2018-04-02T04:52:26.401Z,1.40
2018-04-02T04:54:53.104Z,1.40
2018-04-02T04:57:19.871Z,1.10
2018-04-02T04:59:46.600Z,1.10
2018-04-02T05:02:14.306Z,1.23
2018-04-02T05:04:41.029Z,1.20
2018-04-02T05:07:07.734Z,1.33
2018-04-02T05:09:34.446Z,1.93
2018-04-02T05:12:01.144Z,2.30
2018-04-02T05:14:27.847Z,2.33
2018-04-02T05:16:54.565Z,2.10
2018-04-02T05:19:21.266Z,2.20
2018-04-02T05:21:48.010Z,2.43
2018-04-02T05:24:14.725Z,2.20
2018-04-02T05:26:41.469Z,2.17
2018-04-02T05:29:08.261Z,2.30
2018-04-02T05:31:34.988Z,2.43
2018-04-02T05:34:01.910Z,2.10
2018-04-02T05:36:28.598Z,1.67
2018-04-02T05:38:55.341Z,2.47
2018-04-02T05:41:22.061Z,2.63
2018-04-02T05:43:48.754Z,3.13
2018-04-02T05:46:15.487Z,5.87
2018-04-02T05:48:42.206Z,4.97
2018-04-02T05:51:08.907Z,5.23
2018-04-02T05:53:35.632Z,5.00
2018-04-02T05:56:02.740Z,4.77
2018-04-02T05:58:29.794Z,5.63
2018-04-02T06:00:56.639Z,5.10
2018-04-02T06:03:23.358Z,5.00
2018-04-02T06:05:50.279Z,5.10
2018-04-02T06:08:17.008Z,5.97
2018-04-02T06:10:43.706Z,5.87
2018-04-02T06:13:10.446Z,4.83
2018-04-02T06:15:37.217Z,5.30
2018-04-02T06:18:03.963Z,5.00
2018-04-02T06:20:30.661Z,5.90
2018-04-02T06:22:57.372Z,4.83
2018-04-02T06:25:24.101Z,3.60
2018-04-02T06:27:50.956Z,2.70
2018-04-02T06:30:17.681Z,2.93
2018-04-02T06:32:44.416Z,6.40
2018-04-02T06:35:11.127Z,4.50
2018-04-02T06:37:37.884Z,3.70
2018-04-02T06:40:04.603Z,3.47
2018-04-02T06:42:31.341Z,4.30
2018-04-02T06:44:58.062Z,3.70
2018-04-02T06:47:24.809Z,3.80
2018-04-02T06:49:51.529Z,3.80
2018-04-02T06:52:18.232Z,4.00
2018-04-02T06:54:45.118Z,4.23
2018-04-02T06:57:11.839Z,3.70
2018-04-02T06:59:38.651Z,4.60
2018-04-02T07:02:05.362Z,3.67
2018-04-02T07:04:32.141Z,3.70
2018-04-02T07:06:58.870Z,3.50
2018-04-02T07:09:25.735Z,3.40
2018-04-02T07:11:52.475Z,3.77
2018-04-02T07:14:19.182Z,3.87
2018-04-02T07:16:46.090Z,3.50
2018-04-02T07:19:12.819Z,3.93
2018-04-02T07:21:39.520Z,4.70
2018-04-02T07:24:06.266Z,4.10
2018-04-02T07:26:33.008Z,4.17
2018-04-02T07:28:59.706Z,4.37
2018-04-02T07:31:26.435Z,5.10
2018-04-02T07:33:53.139Z,4.17
2018-04-02T07:36:19.920Z,4.27
2018-04-02T07:38:46.628Z,4.67
2018-04-02T07:41:13.400Z,4.07
2018-04-02T07:43:40.132Z,4.50
2018-04-02T07:46:06.829Z,4.33
2018-04-02T07:48:33.726Z,4.00
2018-04-02T07:51:00.668Z,5.00
2018-04-02T07:53:27.711Z,4.70
2018-04-02T07:55:54.422Z,4.90
2018-04-02T07:58:21.151Z,4.27
2018-04-02T08:00:47.865Z,4.43
2018-04-02T08:03:14.597Z,5.10
2018-04-02T08:05:41.367Z,4.90
2018-04-02T08:08:08.074Z,5.40
2018-04-02T08:10:34.837Z,4.70
2018-04-02T08:13:01.849Z,4.60
2018-04-02T08:15:28.713Z,4.43
2018-04-02T08:17:55.457Z,4.37
2018-04-02T08:20:22.206Z,4.90
2018-04-02T08:22:48.956Z,3.90
2018-04-02T08:25:15.682Z,4.00
2018-04-02T08:27:42.393Z,3.70
2018-04-02T08:30:09.115Z,3.97
2018-04-02T08:32:35.967Z,3.50
2018-04-02T08:35:02.698Z,4.50
2018-04-02T08:37:29.500Z,3.87
2018-04-02T08:39:56.240Z,3.80
2018-04-02T08:42:23.148Z,6.23
2018-04-02T08:44:49.863Z,3.13
2018-04-02T08:47:16.614Z,2.50
2018-04-02T08:49:43.314Z,3.30
2018-04-02T08:52:10.031Z,2.87
2018-04-02T08:54:36.754Z,3.23
2018-04-02T08:57:03.464Z,2.70
2018-04-02T08:59:30.174Z,3.00
2018-04-02T09:01:57.034Z,2.90
2018-04-02T09:04:23.722Z,2.40
2018-04-02T09:06:50.433Z,2.50
2018-04-02T09:09:17.162Z,2.50
2018-04-02T09:11:43.877Z,2.87
2018-04-02T09:14:10.602Z,2.93
2018-04-02T09:16:37.325Z,2.53
2018-04-02T09:19:04.024Z,3.00
2018-04-02T09:21:30.765Z,2.60
2018-04-02T09:23:57.470Z,2.80
2018-04-02T09:26:24.234Z,2.17
2018-04-02T09:28:50.970Z,2.60
2018-04-02T09:31:17.742Z,3.37
2018-04-02T09:33:44.498Z,2.50
2018-04-02T09:36:11.196Z,2.40
2018-04-02T09:38:37.919Z,2.60
2018-04-02T09:41:04.614Z,2.50
2018-04-02T09:43:31.310Z,2.00
2018-04-02T09:45:58.039Z,2.50
2018-04-02T09:48:24.762Z,2.60
2018-04-02T09:50:51.468Z,2.53
2018-04-02T09:53:18.183Z,2.23
2018-04-02T09:55:44.878Z,2.40
2018-04-02T09:58:11.609Z,2.50
2018-04-02T10:00:38.329Z,1.90
2018-04-02T10:03:05.051Z,1.67
2018-04-02T10:05:31.755Z,2.20
2018-04-02T10:07:58.438Z,1.97
2018-04-02T10:10:25.223Z,1.60
2018-04-02T10:12:51.891Z,1.50
2018-04-02T10:15:18.616Z,1.63
2018-04-02T10:17:45.305Z,2.20
2018-04-02T10:20:12.040Z,1.80
2018-04-02T10:22:39.362Z,1.93
2018-04-02T10:25:05.549Z,1.80
2018-04-02T10:27:32.265Z,1.50
2018-04-02T10:29:59.043Z,1.50
2018-04-02T10:32:25.787Z,1.50
2018-04-02T10:34:52.502Z,1.60
2018-04-02T10:37:19.233Z,1.63
2018-04-02T10:39:46.092Z,1.50
2018-04-02T10:42:12.789Z,1.17
2018-04-02T10:44:39.526Z,1.20
2018-04-02T10:47:06.246Z,1.37
2018-04-02T10:49:32.989Z,1.13
2018-04-02T10:51:59.726Z,1.30
2018-04-02T10:54:26.440Z,1.27
2018-04-02T10:56:53.202Z,1.13
2018-04-02T10:59:19.885Z,1.47
2018-04-02T11:01:46.700Z,1.40
2018-04-02T11:04:13.426Z,1.30
2018-04-02T11:06:40.142Z,0.97
2018-04-02T11:09:06.884Z,2.07
2018-04-02T11:11:33.585Z,1.00
2018-04-02T11:14:00.280Z,2.50
2018-04-02T11:16:27.030Z,1.30
2018-04-02T11:18:53.753Z,1.30
2018-04-02T11:21:20.491Z,1.10
2018-04-02T11:23:47.243Z,1.30
2018-04-02T11:26:13.969Z,1.00
2018-04-02T11:28:40.685Z,1.13
2018-04-02T11:31:07.432Z,1.40
2018-04-02T11:33:34.165Z,1.13
2018-04-02T11:36:00.862Z,1.00
2018-04-02T11:38:27.641Z,0.90
2018-04-02T11:40:54.370Z,0.90
2018-04-02T11:43:21.154Z,1.00
2018-04-02T11:45:47.865Z,0.90
2018-04-02T11:48:14.582Z,1.10
2018-04-02T11:50:41.550Z,1.43
2018-04-02T11:53:08.265Z,1.50
2018-04-02T11:55:34.978Z,1.07
2018-04-02T11:58:02.321Z,1.27
2018-04-02T12:00:28.473Z,1.40
2018-04-02T12:02:55.168Z,1.30
2018-04-02T12:05:21.882Z,1.03
2018-04-02T12:07:48.580Z,1.20
2018-04-02T12:10:15.301Z,1.00
2018-04-02T12:12:42.006Z,0.90
2018-04-02T12:15:08.734Z,1.33
2018-04-02T12:17:35.446Z,0.80
2018-04-02T12:20:02.158Z,1.00
2018-04-02T12:22:28.873Z,1.17
2018-04-02T12:24:55.576Z,0.90
2018-04-02T12:27:22.306Z,1.30
2018-04-02T12:29:48.994Z,1.10
2018-04-02T12:32:15.718Z,1.00
2018-04-02T12:34:42.476Z,1.30
2018-04-02T12:37:09.172Z,1.23
2018-04-02T12:39:35.897Z,1.10
2018-04-02T12:42:02.589Z,0.90
2018-04-02T12:44:29.311Z,1.00
2018-04-02T12:46:56.045Z,0.90
2018-04-02T12:49:22.738Z,1.00
2018-04-02T12:51:49.487Z,0.80
2018-04-02T12:54:16.176Z,0.70
2018-04-02T12:56:42.885Z,1.60
2018-04-02T12:59:09.603Z,1.37
2018-04-02T13:01:36.306Z,1.10
2018-04-02T13:04:03.065Z,1.00
2018-04-02T13:06:29.797Z,1.00
2018-04-02T13:08:56.516Z,0.80
2018-04-02T13:11:23.244Z,11.67
2018-04-02T13:13:49.989Z,15.53
2018-04-02T13:16:16.822Z,2.87
2018-04-02T13:18:43.562Z,1.00
2018-04-02T13:21:10.276Z,1.10
2018-04-02T13:23:36.970Z,0.80
2018-04-02T13:26:03.693Z,1.03
2018-04-02T13:28:30.404Z,1.27
2018-04-02T13:30:57.100Z,0.80
2018-04-02T13:33:23.868Z,1.20
2018-04-02T13:35:50.598Z,1.20
2018-04-02T13:38:17.335Z,0.90
2018-04-02T13:40:44.058Z,0.70
2018-04-02T13:43:10.746Z,0.80
2018-04-02T13:45:37.458Z,1.17
2018-04-02T13:48:04.194Z,0.93
2018-04-02T13:50:30.941Z,1.00
2018-04-02T13:52:57.640Z,0.83
2018-04-02T13:55:24.351Z,0.90
2018-04-02T13:57:51.108Z,1.00
2018-04-02T14:00:17.825Z,1.00
2018-04-02T14:02:44.558Z,2.60
2018-04-02T14:05:11.291Z,0.90
2018-04-02T14:07:38.018Z,0.80
2018-04-02T14:10:04.790Z,0.93
2018-04-02T14:12:31.519Z,1.00
2018-04-02T14:14:58.227Z,1.10
2018-04-02T14:17:25.005Z,0.77
2018-04-02T14:19:51.729Z,0.80
2018-04-02T14:22:18.430Z,0.73
2018-04-02T14:24:45.364Z,0.80
2018-04-02T14:27:12.049Z,0.90
2018-04-02T14:29:38.773Z,1.00
2018-04-02T14:32:05.499Z,0.80
2018-04-02T14:34:32.290Z,0.70
2018-04-02T14:36:59.032Z,1.03
2018-04-02T14:39:25.757Z,0.83
2018-04-02T14:41:52.527Z,0.80
2018-04-02T14:44:19.345Z,0.93
2018-04-02T14:46:46.128Z,0.80
2018-04-02T14:49:12.844Z,0.80
2018-04-02T14:51:39.549Z,1.00
2018-04-02T14:54:06.287Z,0.87
2018-04-02T14:56:33.000Z,0.70
2018-04-02T14:58:59.702Z,1.00
2018-04-02T15:01:26.498Z,1.13
2018-04-02T15:03:53.217Z,0.80
2018-04-02T15:06:20.122Z,1.07
2018-04-02T15:08:46.841Z,1.00
2018-04-02T15:11:13.536Z,1.03
2018-04-02T15:13:40.246Z,1.03
2018-04-02T15:16:06.975Z,0.90
2018-04-02T15:18:33.677Z,0.80
2018-04-02T15:21:00.409Z,0.87
2018-04-02T15:23:27.153Z,0.80
2018-04-02T15:25:53.860Z,0.77
2018-04-02T15:28:20.570Z,0.93
2018-04-02T15:30:47.371Z,0.83
2018-04-02T15:33:14.085Z,1.00
2018-04-02T15:35:40.790Z,1.00
2018-04-02T15:38:07.494Z,0.73
2018-04-02T15:40:34.233Z,0.83
2018-04-02T15:43:00.935Z,1.10
2018-04-02T15:45:27.640Z,1.10
2018-04-02T15:47:54.329Z,1.03
2018-04-02T15:50:21.055Z,0.90
2018-04-02T15:52:47.775Z,0.80
2018-04-02T15:55:14.475Z,0.90
2018-04-02T15:57:41.198Z,1.10
2018-04-02T16:00:07.924Z,1.00
2018-04-02T16:02:34.642Z,1.10
2018-04-02T16:05:01.344Z,0.80
2018-04-02T16:07:28.043Z,1.00
2018-04-02T16:09:54.768Z,0.90
2018-04-02T16:12:21.494Z,1.00
2018-04-02T16:14:48.246Z,1.37
2018-04-02T16:17:14.938Z,1.07
2018-04-02T16:19:41.740Z,1.30
2018-04-02T16:22:08.465Z,1.10
2018-04-02T16:24:35.157Z,1.00
2018-04-02T16:27:01.872Z,0.80
2018-04-02T16:29:28.563Z,1.20
2018-04-02T16:31:55.300Z,0.97
2018-04-02T16:34:25.552Z,1.10
2018-04-02T16:37:00.411Z,1.30
2018-04-02T16:39:27.116Z,1.50
2018-04-02T16:41:54.685Z,1.37
2018-04-02T16:44:21.519Z,1.30
2018-04-02T16:46:48.215Z,1.60
2018-04-02T16:49:14.979Z,2.00
2018-04-02T16:51:41.721Z,1.50
2018-04-02T16:54:08.432Z,1.93
2018-04-02T16:56:35.168Z,1.93
2018-04-02T16:59:02.893Z,1.70
2018-04-02T17:01:34.314Z,1.87
2018-04-02T17:04:01.013Z,1.50
2018-04-02T17:09:05.910Z,1.60
2018-04-02T17:11:32.633Z,1.30
2018-04-02T17:14:00.857Z,1.57
2018-04-02T17:16:28.522Z,1.80
2018-04-02T17:19:13.504Z,1.50
2018-04-02T17:21:48.051Z,1.40
2018-04-02T17:24:14.782Z,1.43
2018-04-02T17:26:51.777Z,1.30
2018-04-02T17:29:18.543Z,1.37
2018-04-02T17:31:45.323Z,1.03
2018-04-02T17:34:12.076Z,1.10
2018-04-02T17:36:40.028Z,1.10
2018-04-02T17:39:06.738Z,1.50
2018-04-02T17:41:33.512Z,1.40
2018-04-02T17:44:01.077Z,1.60
2018-04-02T17:46:27.810Z,1.47
2018-04-02T17:48:54.653Z,1.67
2018-04-02T17:51:24.121Z,2.40
2018-04-02T17:58:32.336Z,1.50
2018-04-02T18:01:17.199Z,1.70
2018-04-02T18:03:51.227Z,1.47
2018-04-02T18:06:19.912Z,1.80
2018-04-02T18:09:07.140Z,1.70
2018-04-02T18:13:13.642Z,1.53
2018-04-02T18:21:44.832Z,9.17
2018-04-02T18:24:11.599Z,10.17
2018-04-02T18:26:38.312Z,10.37
2018-04-02T18:29:05.017Z,11.13
2018-04-02T18:31:31.746Z,11.60
2018-04-02T18:33:58.453Z,13.53
2018-04-02T18:36:25.189Z,11.40
2018-04-02T18:38:52.034Z,10.17
2018-04-02T18:41:18.773Z,8.90
2018-04-02T18:43:45.520Z,6.83
2018-04-02T18:46:12.313Z,6.47
2018-04-02T18:48:39.101Z,8.10
2018-04-02T18:51:05.853Z,9.57
2018-04-02T18:53:32.629Z,8.73
2018-04-02T18:55:59.402Z,11.50
2018-04-02T18:58:26.178Z,10.83
2018-04-02T19:00:52.949Z,11.23
2018-04-02T19:03:19.814Z,9.40
2018-04-02T19:05:46.574Z,9.17
2018-04-02T19:08:13.306Z,9.53
2018-04-02T19:10:40.057Z,9.40
2018-04-02T19:13:06.790Z,8.97
2018-04-02T19:15:33.509Z,7.77
2018-04-02T19:18:00.225Z,7.27
2018-04-02T19:20:26.949Z,7.00
2018-04-02T19:22:53.653Z,7.27
2018-04-02T19:25:20.417Z,6.43
2018-04-02T19:27:47.111Z,5.97
2018-04-02T19:30:13.818Z,5.73
2018-04-02T19:32:40.598Z,5.30
2018-04-02T19:35:07.315Z,6.00
2018-04-02T19:37:34.074Z,5.30
2018-04-02T19:40:00.818Z,4.80
2018-04-02T19:42:27.587Z,5.20
2018-04-02T19:44:54.329Z,4.77
2018-04-02T19:47:21.039Z,4.80
2018-04-02T19:49:47.788Z,5.00
2018-04-02T19:52:14.545Z,5.00
2018-04-02T19:54:41.251Z,4.57
2018-04-02T19:57:08.002Z,4.30
2018-04-02T19:59:34.706Z,4.67
2018-04-02T20:02:01.463Z,4.50
2018-04-02T20:04:28.182Z,4.33
2018-04-02T20:06:54.882Z,4.80
2018-04-02T20:09:21.626Z,4.80
2018-04-02T20:11:48.339Z,4.47
2018-04-02T20:14:15.067Z,3.87
2018-04-02T20:16:41.775Z,4.60
2018-04-02T20:19:08.516Z,4.23
2018-04-02T20:21:35.261Z,3.77
2018-04-02T20:24:01.957Z,3.83
2018-04-02T20:26:28.696Z,3.87
2018-04-02T20:28:55.408Z,4.20
2018-04-02T20:31:22.136Z,4.10
2018-04-02T20:33:48.901Z,4.27
2018-04-02T20:36:15.639Z,4.70
2018-04-02T20:38:42.377Z,4.23
2018-04-02T20:41:09.127Z,3.60
2018-04-02T20:43:35.874Z,3.73
2018-04-02T20:46:02.587Z,3.80
2018-04-02T20:48:29.301Z,4.00
2018-04-02T20:50:56.050Z,4.83
2018-04-02T20:53:22.777Z,6.40
2018-04-02T20:55:49.505Z,4.83
2018-04-02T20:58:16.242Z,5.03
2018-04-02T21:00:42.971Z,4.60
2018-04-02T21:03:09.704Z,5.00
2018-04-02T21:05:36.425Z,5.40
2018-04-02T21:08:03.187Z,5.20
2018-04-02T21:10:29.908Z,5.40
2018-04-02T21:12:56.661Z,4.80
2018-04-02T21:15:23.413Z,6.10
2018-04-02T21:17:50.120Z,4.57
2018-04-02T21:20:16.853Z,5.20
2018-04-02T21:22:43.561Z,5.37
2018-04-02T21:25:10.301Z,6.00
2018-04-02T21:27:37.005Z,6.07
2018-04-02T21:30:03.695Z,4.73
2018-04-02T21:32:30.420Z,5.67
2018-04-02T21:34:57.124Z,5.20
2018-04-02T21:37:23.834Z,4.40
2018-04-02T21:39:50.562Z,5.47
2018-04-02T21:42:17.267Z,5.90
2018-04-02T21:44:44.005Z,5.97
2018-04-02T21:47:10.702Z,5.13
2018-04-02T21:49:37.432Z,5.83
2018-04-02T21:52:04.147Z,3.40
2018-04-02T21:54:30.884Z,3.60
2018-04-02T21:56:57.635Z,3.60
2018-04-02T21:59:24.335Z,4.30
2018-04-02T22:01:51.038Z,3.93
2018-04-02T22:04:17.760Z,3.87
2018-04-02T22:06:50.453Z,4.03
2018-04-02T22:09:17.165Z,4.10
2018-04-02T22:11:43.929Z,4.40
2018-04-02T22:14:10.645Z,4.60
2018-04-02T22:16:37.377Z,4.50
2018-04-02T22:19:04.089Z,5.07
2018-04-02T22:21:30.789Z,4.30
2018-04-02T22:23:57.511Z,5.00
2018-04-02T22:26:24.204Z,4.73
2018-04-02T22:28:50.910Z,4.17
2018-04-02T22:31:17.645Z,4.80
2018-04-02T22:33:44.341Z,4.43
2018-04-02T22:36:11.092Z,4.37
2018-04-02T22:38:37.793Z,4.70
2018-04-02T22:41:04.530Z,5.43
2018-04-02T22:43:31.367Z,5.10
2018-04-02T22:45:58.071Z,4.80
2018-04-02T22:48:24.813Z,5.53
2018-04-02T22:50:51.542Z,4.60
2018-04-02T22:53:18.279Z,5.47
2018-04-02T22:55:44.970Z,5.13
2018-04-02T22:58:11.688Z,5.10
2018-04-02T23:00:38.431Z,5.23
2018-04-02T23:03:05.152Z,5.43
2018-04-02T23:05:32.008Z,4.10
2018-04-02T23:07:58.728Z,3.77
2018-04-02T23:10:25.432Z,5.13
2018-04-02T23:12:52.128Z,4.83
2018-04-02T23:15:18.848Z,3.93
2018-04-02T23:17:45.587Z,3.73
2018-04-02T23:20:12.341Z,3.50
2018-04-02T23:22:44.809Z,3.87
2018-04-02T23:25:11.505Z,3.40
2018-04-02T23:27:38.228Z,3.03
2018-04-02T23:30:04.941Z,2.00
2018-04-02T23:32:31.629Z,2.30
2018-04-02T23:34:58.352Z,2.73
2018-04-02T23:37:25.051Z,3.17
2018-04-02T23:39:51.768Z,3.60
2018-04-02T23:42:18.486Z,4.13
2018-04-02T23:44:45.192Z,4.60
2018-04-02T23:47:11.931Z,4.57
2018-04-02T23:49:38.640Z,5.43
2018-04-02T23:52:05.340Z,6.53
2018-04-02T23:54:32.057Z,4.40
2018-04-02T23:56:58.789Z,4.37
2018-04-02T23:59:25.510Z,5.30
